sensor_id;sensor_type;location;lat;lon;timestamp;P1;durP1;ratioP1;P2;durP2;ratioP2
13263;SDS011;6700;51.988;7.646;2022-11-21T00:00:43;26.43;;;18.97;;
13263;SDS011;6700;51.988;7.646;2022-11-21T00:03:11;33.80;;;20.03;;
13263;SDS011;6700;51.988;7.646;2022-11-21T00:05:39;27.83;;;19.50;;
13263;SDS011;6700;51.988;7.646;2022-11-21T00:08:06;32.83;;;19.00;;
13263;SDS011;6700;51.988;7.646;2022-11-21T00:10:34;30.53;;;19.47;;
13263;SDS011;6700;51.988;7.646;2022-11-21T00:13:01;27.57;;;18.37;;
13263;SDS011;6700;51.988;7.646;2022-11-21T00:15:29;35.57;;;21.43;;
13263;SDS011;6700;51.988;7.646;2022-11-21T00:17:56;31.90;;;18.73;;
13263;SDS011;6700;51.988;7.646;2022-11-21T00:20:23;30.27;;;19.83;;
13263;SDS011;6700;51.988;7.646;2022-11-21T00:22:50;28.10;;;19.50;;
13263;SDS011;6700;51.988;7.646;2022-11-21T00:25:18;26.07;;;18.13;;
13263;SDS011;6700;51.988;7.646;2022-11-21T00:27:47;30.50;;;20.10;;
13263;SDS011;6700;51.988;7.646;2022-11-21T00:30:14;24.77;;;18.70;;
13263;SDS011;6700;51.988;7.646;2022-11-21T00:32:41;27.73;;;18.93;;
13263;SDS011;6700;51.988;7.646;2022-11-21T00:35:08;27.17;;;17.50;;
13263;SDS011;6700;51.988;7.646;2022-11-21T00:37:35;26.43;;;17.67;;
13263;SDS011;6700;51.988;7.646;2022-11-21T00:40:03;25.53;;;16.97;;
13263;SDS011;6700;51.988;7.646;2022-11-21T00:42:30;30.93;;;19.13;;
13263;SDS011;6700;51.988;7.646;2022-11-21T00:44:57;29.57;;;19.07;;
13263;SDS011;6700;51.988;7.646;2022-11-21T00:47:24;27.47;;;17.83;;
13263;SDS011;6700;51.988;7.646;2022-11-21T00:49:51;28.50;;;18.93;;
13263;SDS011;6700;51.988;7.646;2022-11-21T00:52:18;33.00;;;19.77;;
13263;SDS011;6700;51.988;7.646;2022-11-21T00:54:45;32.03;;;19.83;;
13263;SDS011;6700;51.988;7.646;2022-11-21T00:57:12;25.63;;;18.27;;
13263;SDS011;6700;51.988;7.646;2022-11-21T00:59:40;28.30;;;18.57;;
13263;SDS011;6700;51.988;7.646;2022-11-21T01:02:07;26.37;;;18.40;;
13263;SDS011;6700;51.988;7.646;2022-11-21T01:04:34;29.40;;;19.37;;
13263;SDS011;6700;51.988;7.646;2022-11-21T01:07:02;29.17;;;19.57;;
13263;SDS011;6700;51.988;7.646;2022-11-21T01:09:29;29.10;;;19.63;;
13263;SDS011;6700;51.988;7.646;2022-11-21T01:11:56;28.57;;;19.73;;
13263;SDS011;6700;51.988;7.646;2022-11-21T01:14:23;29.23;;;18.60;;
13263;SDS011;6700;51.988;7.646;2022-11-21T01:16:51;29.40;;;20.03;;
13263;SDS011;6700;51.988;7.646;2022-11-21T01:19:18;30.50;;;19.40;;
13263;SDS011;6700;51.988;7.646;2022-11-21T01:21:45;28.70;;;18.57;;
13263;SDS011;6700;51.988;7.646;2022-11-21T01:24:12;30.97;;;19.67;;
13263;SDS011;6700;51.988;7.646;2022-11-21T01:26:39;29.37;;;19.63;;
13263;SDS011;6700;51.988;7.646;2022-11-21T01:29:06;29.87;;;19.23;;
13263;SDS011;6700;51.988;7.646;2022-11-21T01:31:34;29.67;;;20.03;;
13263;SDS011;6700;51.988;7.646;2022-11-21T01:34:01;32.80;;;19.60;;
13263;SDS011;6700;51.988;7.646;2022-11-21T01:36:32;30.47;;;20.87;;
13263;SDS011;6700;51.988;7.646;2022-11-21T01:39:01;34.13;;;20.83;;
13263;SDS011;6700;51.988;7.646;2022-11-21T01:41:30;24.97;;;19.43;;
13263;SDS011;6700;51.988;7.646;2022-11-21T01:43:59;30.10;;;19.97;;
13263;SDS011;6700;51.988;7.646;2022-11-21T01:46:26;28.43;;;18.87;;
13263;SDS011;6700;51.988;7.646;2022-11-21T01:54:02;33.20;;;19.77;;
13263;SDS011;6700;51.988;7.646;2022-11-21T01:56:31;33.90;;;21.80;;
13263;SDS011;6700;51.988;7.646;2022-11-21T01:58:59;29.70;;;20.80;;
13263;SDS011;6700;51.988;7.646;2022-11-21T02:01:27;30.17;;;18.57;;
13263;SDS011;6700;51.988;7.646;2022-11-21T02:03:55;36.47;;;20.87;;
13263;SDS011;6700;51.988;7.646;2022-11-21T02:06:23;30.37;;;19.73;;
13263;SDS011;6700;51.988;7.646;2022-11-21T02:08:51;28.63;;;18.93;;
13263;SDS011;6700;51.988;7.646;2022-11-21T02:11:26;26.83;;;18.17;;
13263;SDS011;6700;51.988;7.646;2022-11-21T02:13:55;27.07;;;19.20;;
13263;SDS011;6700;51.988;7.646;2022-11-21T02:16:22;27.43;;;18.80;;
13263;SDS011;6700;51.988;7.646;2022-11-21T02:18:54;31.93;;;21.17;;
13263;SDS011;6700;51.988;7.646;2022-11-21T02:21:42;28.70;;;19.00;;
13263;SDS011;6700;51.988;7.646;2022-11-21T02:26:51;29.93;;;20.10;;
13263;SDS011;6700;51.988;7.646;2022-11-21T02:29:19;30.70;;;20.57;;
13263;SDS011;6700;51.988;7.646;2022-11-21T02:31:46;30.13;;;20.07;;
13263;SDS011;6700;51.988;7.646;2022-11-21T02:34:13;30.53;;;20.90;;
13263;SDS011;6700;51.988;7.646;2022-11-21T02:36:41;28.93;;;20.73;;
13263;SDS011;6700;51.988;7.646;2022-11-21T02:39:10;28.37;;;18.93;;
13263;SDS011;6700;51.988;7.646;2022-11-21T02:41:39;27.53;;;19.67;;
13263;SDS011;6700;51.988;7.646;2022-11-21T02:44:08;27.97;;;20.43;;
13263;SDS011;6700;51.988;7.646;2022-11-21T02:46:36;30.23;;;19.90;;
13263;SDS011;6700;51.988;7.646;2022-11-21T02:49:11;28.83;;;20.07;;
13263;SDS011;6700;51.988;7.646;2022-11-21T02:51:39;32.47;;;20.87;;
13263;SDS011;6700;51.988;7.646;2022-11-21T02:54:06;31.90;;;21.97;;
13263;SDS011;6700;51.988;7.646;2022-11-21T02:56:33;29.47;;;21.33;;
13263;SDS011;6700;51.988;7.646;2022-11-21T02:59:00;30.13;;;21.03;;
13263;SDS011;6700;51.988;7.646;2022-11-21T03:01:28;32.50;;;21.73;;
13263;SDS011;6700;51.988;7.646;2022-11-21T03:03:55;37.07;;;22.53;;
13263;SDS011;6700;51.988;7.646;2022-11-21T03:06:22;33.50;;;21.70;;
13263;SDS011;6700;51.988;7.646;2022-11-21T03:08:49;29.97;;;18.90;;
13263;SDS011;6700;51.988;7.646;2022-11-21T03:11:16;31.63;;;22.10;;
13263;SDS011;6700;51.988;7.646;2022-11-21T03:13:44;34.67;;;22.00;;
13263;SDS011;6700;51.988;7.646;2022-11-21T03:16:14;27.17;;;19.87;;
13263;SDS011;6700;51.988;7.646;2022-11-21T03:18:41;25.90;;;19.00;;
13263;SDS011;6700;51.988;7.646;2022-11-21T03:21:08;27.63;;;19.07;;
13263;SDS011;6700;51.988;7.646;2022-11-21T03:23:36;35.13;;;21.93;;
13263;SDS011;6700;51.988;7.646;2022-11-21T03:26:03;33.90;;;22.20;;
13263;SDS011;6700;51.988;7.646;2022-11-21T03:28:30;30.53;;;20.10;;
13263;SDS011;6700;51.988;7.646;2022-11-21T03:30:57;28.30;;;21.03;;
13263;SDS011;6700;51.988;7.646;2022-11-21T03:33:24;29.50;;;19.97;;
13263;SDS011;6700;51.988;7.646;2022-11-21T03:35:51;32.13;;;21.77;;
13263;SDS011;6700;51.988;7.646;2022-11-21T03:38:18;31.33;;;19.53;;
13263;SDS011;6700;51.988;7.646;2022-11-21T03:40:46;32.67;;;21.83;;
13263;SDS011;6700;51.988;7.646;2022-11-21T03:43:14;29.97;;;21.93;;
13263;SDS011;6700;51.988;7.646;2022-11-21T03:45:41;30.77;;;20.57;;
13263;SDS011;6700;51.988;7.646;2022-11-21T03:48:11;30.20;;;22.00;;
13263;SDS011;6700;51.988;7.646;2022-11-21T03:50:40;35.23;;;21.30;;
13263;SDS011;6700;51.988;7.646;2022-11-21T03:53:07;31.80;;;21.57;;
13263;SDS011;6700;51.988;7.646;2022-11-21T03:55:35;28.77;;;20.20;;
13263;SDS011;6700;51.988;7.646;2022-11-21T03:58:02;30.07;;;21.60;;
13263;SDS011;6700;51.988;7.646;2022-11-21T04:00:29;25.47;;;19.97;;
13263;SDS011;6700;51.988;7.646;2022-11-21T04:02:56;30.33;;;20.37;;
13263;SDS011;6700;51.988;7.646;2022-11-21T04:05:23;32.63;;;20.23;;
13263;SDS011;6700;51.988;7.646;2022-11-21T04:07:50;32.80;;;20.13;;
13263;SDS011;6700;51.988;7.646;2022-11-21T04:10:20;29.77;;;19.90;;
13263;SDS011;6700;51.988;7.646;2022-11-21T04:12:47;31.47;;;19.87;;
13263;SDS011;6700;51.988;7.646;2022-11-21T04:15:14;30.80;;;19.93;;
13263;SDS011;6700;51.988;7.646;2022-11-21T04:17:41;29.03;;;21.33;;
13263;SDS011;6700;51.988;7.646;2022-11-21T04:20:08;29.07;;;20.23;;
13263;SDS011;6700;51.988;7.646;2022-11-21T04:25:12;28.10;;;20.77;;
13263;SDS011;6700;51.988;7.646;2022-11-21T04:27:39;29.43;;;21.30;;
13263;SDS011;6700;51.988;7.646;2022-11-21T04:30:06;29.80;;;20.03;;
13263;SDS011;6700;51.988;7.646;2022-11-21T04:32:33;26.80;;;18.93;;
13263;SDS011;6700;51.988;7.646;2022-11-21T04:35:01;28.93;;;19.20;;
13263;SDS011;6700;51.988;7.646;2022-11-21T04:37:28;28.43;;;21.00;;
13263;SDS011;6700;51.988;7.646;2022-11-21T04:39:55;28.43;;;19.67;;
13263;SDS011;6700;51.988;7.646;2022-11-21T04:42:22;33.10;;;20.27;;
13263;SDS011;6700;51.988;7.646;2022-11-21T04:44:49;28.70;;;19.17;;
13263;SDS011;6700;51.988;7.646;2022-11-21T04:47:16;28.07;;;19.30;;
13263;SDS011;6700;51.988;7.646;2022-11-21T04:49:44;26.17;;;18.77;;
13263;SDS011;6700;51.988;7.646;2022-11-21T04:52:11;26.83;;;18.70;;
13263;SDS011;6700;51.988;7.646;2022-11-21T04:54:39;29.23;;;20.20;;
13263;SDS011;6700;51.988;7.646;2022-11-21T04:57:06;30.67;;;20.23;;
13263;SDS011;6700;51.988;7.646;2022-11-21T04:59:33;28.17;;;20.93;;
13263;SDS011;6700;51.988;7.646;2022-11-21T05:02:01;28.17;;;18.87;;
13263;SDS011;6700;51.988;7.646;2022-11-21T05:04:28;30.20;;;20.30;;
13263;SDS011;6700;51.988;7.646;2022-11-21T05:06:55;33.73;;;23.30;;
13263;SDS011;6700;51.988;7.646;2022-11-21T05:09:22;32.40;;;21.13;;
13263;SDS011;6700;51.988;7.646;2022-11-21T05:11:49;30.03;;;21.17;;
13263;SDS011;6700;51.988;7.646;2022-11-21T05:14:37;29.50;;;19.23;;
13263;SDS011;6700;51.988;7.646;2022-11-21T05:17:04;29.43;;;20.43;;
13263;SDS011;6700;51.988;7.646;2022-11-21T05:19:32;29.30;;;19.70;;
13263;SDS011;6700;51.988;7.646;2022-11-21T05:22:01;30.20;;;19.13;;
13263;SDS011;6700;51.988;7.646;2022-11-21T05:24:28;29.43;;;19.53;;
13263;SDS011;6700;51.988;7.646;2022-11-21T05:26:57;28.23;;;18.83;;
13263;SDS011;6700;51.988;7.646;2022-11-21T05:29:24;30.33;;;20.30;;
13263;SDS011;6700;51.988;7.646;2022-11-21T05:31:53;26.30;;;18.57;;
13263;SDS011;6700;51.988;7.646;2022-11-21T05:34:20;32.93;;;21.17;;
13263;SDS011;6700;51.988;7.646;2022-11-21T05:36:48;29.63;;;19.97;;
13263;SDS011;6700;51.988;7.646;2022-11-21T05:39:15;30.00;;;19.73;;
13263;SDS011;6700;51.988;7.646;2022-11-21T05:41:42;27.97;;;19.10;;
13263;SDS011;6700;51.988;7.646;2022-11-21T05:44:12;27.60;;;19.57;;
13263;SDS011;6700;51.988;7.646;2022-11-21T05:46:42;31.80;;;20.33;;
13263;SDS011;6700;51.988;7.646;2022-11-21T05:49:12;31.30;;;19.97;;
13263;SDS011;6700;51.988;7.646;2022-11-21T05:51:40;27.87;;;20.90;;
13263;SDS011;6700;51.988;7.646;2022-11-21T05:54:12;30.07;;;20.53;;
13263;SDS011;6700;51.988;7.646;2022-11-21T05:56:42;29.70;;;21.07;;
13263;SDS011;6700;51.988;7.646;2022-11-21T05:59:11;31.87;;;21.27;;
13263;SDS011;6700;51.988;7.646;2022-11-21T06:01:41;32.30;;;21.40;;
13263;SDS011;6700;51.988;7.646;2022-11-21T06:04:28;31.90;;;20.27;;
13263;SDS011;6700;51.988;7.646;2022-11-21T06:06:56;31.47;;;21.50;;
13263;SDS011;6700;51.988;7.646;2022-11-21T06:09:25;28.93;;;20.57;;
13263;SDS011;6700;51.988;7.646;2022-11-21T06:11:53;29.97;;;20.17;;
13263;SDS011;6700;51.988;7.646;2022-11-21T06:14:21;28.20;;;21.13;;
13263;SDS011;6700;51.988;7.646;2022-11-21T06:16:51;32.70;;;23.20;;
13263;SDS011;6700;51.988;7.646;2022-11-21T06:19:21;28.93;;;19.50;;
13263;SDS011;6700;51.988;7.646;2022-11-21T06:21:50;30.87;;;21.47;;
13263;SDS011;6700;51.988;7.646;2022-11-21T06:24:18;33.87;;;20.60;;
13263;SDS011;6700;51.988;7.646;2022-11-21T06:26:49;31.17;;;20.43;;
13263;SDS011;6700;51.988;7.646;2022-11-21T06:29:18;27.07;;;20.77;;
13263;SDS011;6700;51.988;7.646;2022-11-21T06:31:47;30.27;;;20.13;;
13263;SDS011;6700;51.988;7.646;2022-11-21T06:34:16;33.70;;;21.03;;
13263;SDS011;6700;51.988;7.646;2022-11-21T06:36:44;32.60;;;21.80;;
13263;SDS011;6700;51.988;7.646;2022-11-21T06:39:13;31.73;;;21.07;;
13263;SDS011;6700;51.988;7.646;2022-11-21T06:41:41;31.47;;;20.07;;
13263;SDS011;6700;51.988;7.646;2022-11-21T06:44:16;30.77;;;21.57;;
13263;SDS011;6700;51.988;7.646;2022-11-21T06:46:45;35.40;;;20.13;;
13263;SDS011;6700;51.988;7.646;2022-11-21T06:49:18;33.27;;;21.13;;
13263;SDS011;6700;51.988;7.646;2022-11-21T06:51:47;33.50;;;21.97;;
13263;SDS011;6700;51.988;7.646;2022-11-21T06:54:15;31.67;;;22.40;;
13263;SDS011;6700;51.988;7.646;2022-11-21T06:56:44;33.40;;;21.47;;
13263;SDS011;6700;51.988;7.646;2022-11-21T06:59:12;31.37;;;21.90;;
13263;SDS011;6700;51.988;7.646;2022-11-21T07:01:40;29.70;;;20.90;;
13263;SDS011;6700;51.988;7.646;2022-11-21T07:04:09;28.73;;;20.57;;
13263;SDS011;6700;51.988;7.646;2022-11-21T07:06:39;33.17;;;21.93;;
13263;SDS011;6700;51.988;7.646;2022-11-21T07:09:07;31.60;;;21.57;;
13263;SDS011;6700;51.988;7.646;2022-11-21T07:11:56;35.13;;;21.67;;
13263;SDS011;6700;51.988;7.646;2022-11-21T07:14:44;35.60;;;22.57;;
13263;SDS011;6700;51.988;7.646;2022-11-21T07:17:13;32.43;;;22.37;;
13263;SDS011;6700;51.988;7.646;2022-11-21T07:19:41;32.27;;;21.90;;
13263;SDS011;6700;51.988;7.646;2022-11-21T07:22:10;33.73;;;22.60;;
13263;SDS011;6700;51.988;7.646;2022-11-21T07:24:38;38.67;;;23.70;;
13263;SDS011;6700;51.988;7.646;2022-11-21T07:27:06;34.13;;;23.13;;
13263;SDS011;6700;51.988;7.646;2022-11-21T07:29:35;36.97;;;25.03;;
13263;SDS011;6700;51.988;7.646;2022-11-21T07:32:03;38.00;;;23.67;;
13263;SDS011;6700;51.988;7.646;2022-11-21T07:34:31;42.53;;;25.57;;
13263;SDS011;6700;51.988;7.646;2022-11-21T07:37:00;40.97;;;25.17;;
13263;SDS011;6700;51.988;7.646;2022-11-21T07:39:30;38.40;;;23.50;;
13263;SDS011;6700;51.988;7.646;2022-11-21T07:41:59;36.90;;;24.27;;
13263;SDS011;6700;51.988;7.646;2022-11-21T07:44:27;37.93;;;24.20;;
13263;SDS011;6700;51.988;7.646;2022-11-21T07:46:56;36.27;;;24.33;;
13263;SDS011;6700;51.988;7.646;2022-11-21T07:49:24;35.53;;;24.07;;
13263;SDS011;6700;51.988;7.646;2022-11-21T07:51:53;40.57;;;23.77;;
13263;SDS011;6700;51.988;7.646;2022-11-21T07:54:21;40.73;;;24.17;;
13263;SDS011;6700;51.988;7.646;2022-11-21T07:56:50;37.83;;;24.47;;
13263;SDS011;6700;51.988;7.646;2022-11-21T07:59:18;35.67;;;24.47;;
13263;SDS011;6700;51.988;7.646;2022-11-21T08:01:46;40.40;;;23.37;;
13263;SDS011;6700;51.988;7.646;2022-11-21T08:04:15;32.73;;;23.80;;
13263;SDS011;6700;51.988;7.646;2022-11-21T08:06:43;38.00;;;23.90;;
13263;SDS011;6700;51.988;7.646;2022-11-21T08:09:11;33.70;;;23.57;;
13263;SDS011;6700;51.988;7.646;2022-11-21T08:11:40;39.43;;;25.33;;
13263;SDS011;6700;51.988;7.646;2022-11-21T08:14:08;38.43;;;25.07;;
13263;SDS011;6700;51.988;7.646;2022-11-21T08:16:37;42.93;;;26.13;;
13263;SDS011;6700;51.988;7.646;2022-11-21T08:19:05;37.07;;;23.40;;
13263;SDS011;6700;51.988;7.646;2022-11-21T08:21:33;39.17;;;25.83;;
13263;SDS011;6700;51.988;7.646;2022-11-21T08:24:02;39.47;;;25.50;;
13263;SDS011;6700;51.988;7.646;2022-11-21T08:26:30;44.23;;;27.20;;
13263;SDS011;6700;51.988;7.646;2022-11-21T08:28:59;44.60;;;26.17;;
13263;SDS011;6700;51.988;7.646;2022-11-21T08:31:27;40.03;;;25.80;;
13263;SDS011;6700;51.988;7.646;2022-11-21T08:33:55;43.03;;;26.60;;
13263;SDS011;6700;51.988;7.646;2022-11-21T08:36:23;45.73;;;26.97;;
13263;SDS011;6700;51.988;7.646;2022-11-21T08:38:52;44.43;;;25.17;;
13263;SDS011;6700;51.988;7.646;2022-11-21T08:41:21;52.13;;;26.83;;
13263;SDS011;6700;51.988;7.646;2022-11-21T08:44:08;44.37;;;25.37;;
13263;SDS011;6700;51.988;7.646;2022-11-21T08:46:39;44.17;;;24.73;;
13263;SDS011;6700;51.988;7.646;2022-11-21T08:49:08;39.57;;;25.17;;
13263;SDS011;6700;51.988;7.646;2022-11-21T08:51:36;44.67;;;25.80;;
13263;SDS011;6700;51.988;7.646;2022-11-21T08:54:08;43.30;;;25.33;;
13263;SDS011;6700;51.988;7.646;2022-11-21T08:56:38;46.00;;;23.60;;
13263;SDS011;6700;51.988;7.646;2022-11-21T08:59:07;49.90;;;27.00;;
13263;SDS011;6700;51.988;7.646;2022-11-21T09:01:36;49.50;;;27.47;;
13263;SDS011;6700;51.988;7.646;2022-11-21T09:04:04;48.50;;;27.40;;
13263;SDS011;6700;51.988;7.646;2022-11-21T09:06:33;50.40;;;26.67;;
13263;SDS011;6700;51.988;7.646;2022-11-21T09:09:03;44.10;;;26.43;;
13263;SDS011;6700;51.988;7.646;2022-11-21T09:11:32;49.43;;;28.27;;
13263;SDS011;6700;51.988;7.646;2022-11-21T09:14:01;48.37;;;26.40;;
13263;SDS011;6700;51.988;7.646;2022-11-21T09:16:49;47.23;;;26.10;;
13263;SDS011;6700;51.988;7.646;2022-11-21T09:19:39;48.63;;;25.30;;
13263;SDS011;6700;51.988;7.646;2022-11-21T09:22:07;46.90;;;26.00;;
13263;SDS011;6700;51.988;7.646;2022-11-21T09:24:36;47.10;;;24.97;;
13263;SDS011;6700;51.988;7.646;2022-11-21T09:27:04;47.37;;;26.03;;
13263;SDS011;6700;51.988;7.646;2022-11-21T09:29:33;50.17;;;26.33;;
13263;SDS011;6700;51.988;7.646;2022-11-21T09:32:03;45.50;;;26.60;;
13263;SDS011;6700;51.988;7.646;2022-11-21T09:34:31;47.87;;;26.53;;
13263;SDS011;6700;51.988;7.646;2022-11-21T09:36:59;48.33;;;25.63;;
13263;SDS011;6700;51.988;7.646;2022-11-21T09:39:28;45.13;;;26.20;;
13263;SDS011;6700;51.988;7.646;2022-11-21T09:47:27;44.90;;;24.67;;
13263;SDS011;6700;51.988;7.646;2022-11-21T09:50:01;47.60;;;25.23;;
13263;SDS011;6700;51.988;7.646;2022-11-21T09:52:48;43.50;;;24.00;;
13263;SDS011;6700;51.988;7.646;2022-11-21T09:58:03;46.43;;;25.17;;
13263;SDS011;6700;51.988;7.646;2022-11-21T10:00:31;41.73;;;24.63;;
13263;SDS011;6700;51.988;7.646;2022-11-21T10:02:59;48.43;;;24.33;;
13263;SDS011;6700;51.988;7.646;2022-11-21T10:05:38;42.87;;;24.50;;
13263;SDS011;6700;51.988;7.646;2022-11-21T10:08:14;44.07;;;26.37;;
13263;SDS011;6700;51.988;7.646;2022-11-21T10:13:18;44.90;;;24.43;;
13263;SDS011;6700;51.988;7.646;2022-11-21T10:23:35;44.93;;;25.53;;
13263;SDS011;6700;51.988;7.646;2022-11-21T10:26:16;44.87;;;26.30;;
13263;SDS011;6700;51.988;7.646;2022-11-21T10:31:19;48.17;;;26.57;;
13263;SDS011;6700;51.988;7.646;2022-11-21T10:33:49;50.53;;;26.80;;
13263;SDS011;6700;51.988;7.646;2022-11-21T10:36:22;49.97;;;28.27;;
13263;SDS011;6700;51.988;7.646;2022-11-21T10:38:53;47.53;;;28.20;;
13263;SDS011;6700;51.988;7.646;2022-11-21T10:44:30;43.87;;;24.60;;
13263;SDS011;6700;51.988;7.646;2022-11-21T10:47:18;49.13;;;26.80;;
13263;SDS011;6700;51.988;7.646;2022-11-21T10:52:41;53.30;;;26.80;;
13263;SDS011;6700;51.988;7.646;2022-11-21T10:55:14;39.70;;;23.10;;
13263;SDS011;6700;51.988;7.646;2022-11-21T10:57:43;45.47;;;25.57;;
13263;SDS011;6700;51.988;7.646;2022-11-21T11:03:02;44.83;;;25.37;;
13263;SDS011;6700;51.988;7.646;2022-11-21T11:05:31;46.73;;;25.90;;
13263;SDS011;6700;51.988;7.646;2022-11-21T11:08:04;46.37;;;26.67;;
13263;SDS011;6700;51.988;7.646;2022-11-21T11:11:15;42.90;;;24.90;;
13263;SDS011;6700;51.988;7.646;2022-11-21T11:13:23;45.67;;;26.60;;
13263;SDS011;6700;51.988;7.646;2022-11-21T11:16:14;58.17;;;28.73;;
13263;SDS011;6700;51.988;7.646;2022-11-21T11:21:19;52.10;;;29.07;;
13263;SDS011;6700;51.988;7.646;2022-11-21T11:23:49;50.37;;;27.03;;
13263;SDS011;6700;51.988;7.646;2022-11-21T11:26:27;44.70;;;28.17;;
13263;SDS011;6700;51.988;7.646;2022-11-21T11:29:12;48.17;;;27.40;;
13263;SDS011;6700;51.988;7.646;2022-11-21T11:31:41;47.57;;;29.10;;
13263;SDS011;6700;51.988;7.646;2022-11-21T11:34:11;52.67;;;30.83;;
13263;SDS011;6700;51.988;7.646;2022-11-21T11:42:22;57.03;;;29.50;;
13263;SDS011;6700;51.988;7.646;2022-11-21T11:47:59;52.27;;;29.77;;
13263;SDS011;6700;51.988;7.646;2022-11-21T11:50:31;61.43;;;30.47;;
13263;SDS011;6700;51.988;7.646;2022-11-21T11:55:51;58.33;;;31.40;;
13263;SDS011;6700;51.988;7.646;2022-11-21T11:58:20;59.30;;;30.03;;
13263;SDS011;6700;51.988;7.646;2022-11-21T12:00:56;61.80;;;32.20;;
13263;SDS011;6700;51.988;7.646;2022-11-21T12:06:20;51.67;;;29.77;;
13263;SDS011;6700;51.988;7.646;2022-11-21T12:14:59;55.23;;;30.27;;
13263;SDS011;6700;51.988;7.646;2022-11-21T12:18:08;56.70;;;30.93;;
13263;SDS011;6700;51.988;7.646;2022-11-21T12:23:16;52.30;;;28.13;;
13263;SDS011;6700;51.988;7.646;2022-11-21T12:25:49;53.07;;;28.97;;
13263;SDS011;6700;51.988;7.646;2022-11-21T12:28:22;51.17;;;29.33;;
13263;SDS011;6700;51.988;7.646;2022-11-21T12:30:57;47.43;;;28.20;;
13263;SDS011;6700;51.988;7.646;2022-11-21T12:33:27;49.57;;;29.97;;
13263;SDS011;6700;51.988;7.646;2022-11-21T12:41:16;46.40;;;28.17;;
13263;SDS011;6700;51.988;7.646;2022-11-21T12:46:39;45.73;;;27.37;;
13263;SDS011;6700;51.988;7.646;2022-11-21T12:52:17;44.23;;;27.10;;
13263;SDS011;6700;51.988;7.646;2022-11-21T13:00:30;42.63;;;25.83;;
13263;SDS011;6700;51.988;7.646;2022-11-21T13:08:59;42.23;;;27.03;;
13263;SDS011;6700;51.988;7.646;2022-11-21T13:11:31;42.03;;;24.67;;
13263;SDS011;6700;51.988;7.646;2022-11-21T13:14:32;37.90;;;23.30;;
13263;SDS011;6700;51.988;7.646;2022-11-21T13:25:08;43.57;;;25.10;;
13263;SDS011;6700;51.988;7.646;2022-11-21T13:27:36;39.57;;;23.33;;
13263;SDS011;6700;51.988;7.646;2022-11-21T13:32:38;44.17;;;26.40;;
13263;SDS011;6700;51.988;7.646;2022-11-21T13:45:54;48.43;;;24.60;;
13263;SDS011;6700;51.988;7.646;2022-11-21T13:59:34;50.70;;;27.03;;
13263;SDS011;6700;51.988;7.646;2022-11-21T14:07:30;50.53;;;26.90;;
13263;SDS011;6700;51.988;7.646;2022-11-21T14:10:00;53.87;;;27.97;;
13263;SDS011;6700;51.988;7.646;2022-11-21T14:12:31;52.13;;;25.97;;
13263;SDS011;6700;51.988;7.646;2022-11-21T14:15:16;48.30;;;25.93;;
13263;SDS011;6700;51.988;7.646;2022-11-21T14:17:49;52.60;;;28.17;;
13263;SDS011;6700;51.988;7.646;2022-11-21T14:20:25;50.17;;;27.80;;
13263;SDS011;6700;51.988;7.646;2022-11-21T14:22:57;55.57;;;26.47;;
13263;SDS011;6700;51.988;7.646;2022-11-21T14:28:11;55.90;;;27.30;;
13263;SDS011;6700;51.988;7.646;2022-11-21T14:30:40;47.03;;;25.93;;
13263;SDS011;6700;51.988;7.646;2022-11-21T14:35:55;52.23;;;25.97;;
13263;SDS011;6700;51.988;7.646;2022-11-21T14:38:23;52.43;;;26.70;;
13263;SDS011;6700;51.988;7.646;2022-11-21T14:41:09;55.13;;;27.50;;
13263;SDS011;6700;51.988;7.646;2022-11-21T14:43:40;51.30;;;26.57;;
13263;SDS011;6700;51.988;7.646;2022-11-21T14:46:18;50.23;;;25.60;;
13263;SDS011;6700;51.988;7.646;2022-11-21T14:48:46;52.43;;;25.67;;
13263;SDS011;6700;51.988;7.646;2022-11-21T14:51:14;50.43;;;26.27;;
13263;SDS011;6700;51.988;7.646;2022-11-21T14:53:43;57.77;;;26.10;;
13263;SDS011;6700;51.988;7.646;2022-11-21T14:56:23;49.23;;;26.83;;
13263;SDS011;6700;51.988;7.646;2022-11-21T14:58:53;51.90;;;24.47;;
13263;SDS011;6700;51.988;7.646;2022-11-21T15:01:22;56.63;;;27.47;;
13263;SDS011;6700;51.988;7.646;2022-11-21T15:06:22;55.60;;;25.63;;
13263;SDS011;6700;51.988;7.646;2022-11-21T15:08:55;57.97;;;26.63;;
13263;SDS011;6700;51.988;7.646;2022-11-21T15:11:50;58.67;;;27.27;;
13263;SDS011;6700;51.988;7.646;2022-11-21T15:14:29;52.60;;;25.47;;
13263;SDS011;6700;51.988;7.646;2022-11-21T15:16:58;48.60;;;25.17;;
13263;SDS011;6700;51.988;7.646;2022-11-21T15:19:27;52.17;;;25.37;;
13263;SDS011;6700;51.988;7.646;2022-11-21T15:21:55;53.80;;;24.37;;
13263;SDS011;6700;51.988;7.646;2022-11-21T15:25:03;55.63;;;26.67;;
13263;SDS011;6700;51.988;7.646;2022-11-21T15:30:02;54.97;;;26.60;;
13263;SDS011;6700;51.988;7.646;2022-11-21T15:32:33;55.27;;;25.17;;
13263;SDS011;6700;51.988;7.646;2022-11-21T15:35:25;59.57;;;27.27;;
13263;SDS011;6700;51.988;7.646;2022-11-21T15:37:52;52.80;;;27.10;;
13263;SDS011;6700;51.988;7.646;2022-11-21T15:40:19;56.23;;;27.53;;
13263;SDS011;6700;51.988;7.646;2022-11-21T15:42:48;55.67;;;26.87;;
13263;SDS011;6700;51.988;7.646;2022-11-21T15:48:03;61.23;;;27.53;;
13263;SDS011;6700;51.988;7.646;2022-11-21T15:50:32;59.40;;;26.87;;
13263;SDS011;6700;51.988;7.646;2022-11-21T15:52:59;53.73;;;25.93;;
13263;SDS011;6700;51.988;7.646;2022-11-21T15:55:28;59.70;;;26.67;;
13263;SDS011;6700;51.988;7.646;2022-11-21T15:57:56;49.23;;;25.63;;
13263;SDS011;6700;51.988;7.646;2022-11-21T16:00:23;56.37;;;25.40;;
13263;SDS011;6700;51.988;7.646;2022-11-21T16:02:50;51.10;;;25.53;;
13263;SDS011;6700;51.988;7.646;2022-11-21T16:05:17;48.83;;;23.43;;
13263;SDS011;6700;51.988;7.646;2022-11-21T16:07:45;52.73;;;25.70;;
13263;SDS011;6700;51.988;7.646;2022-11-21T16:10:13;45.20;;;24.33;;
13263;SDS011;6700;51.988;7.646;2022-11-21T16:12:52;44.97;;;24.80;;
13263;SDS011;6700;51.988;7.646;2022-11-21T16:15:19;48.33;;;25.67;;
13263;SDS011;6700;51.988;7.646;2022-11-21T16:17:46;42.73;;;25.03;;
13263;SDS011;6700;51.988;7.646;2022-11-21T16:20:13;45.63;;;25.33;;
13263;SDS011;6700;51.988;7.646;2022-11-21T16:22:41;45.20;;;25.47;;
13263;SDS011;6700;51.988;7.646;2022-11-21T16:25:13;47.40;;;25.43;;
13263;SDS011;6700;51.988;7.646;2022-11-21T16:27:40;49.13;;;25.60;;
13263;SDS011;6700;51.988;7.646;2022-11-21T16:30:08;43.27;;;24.77;;
13263;SDS011;6700;51.988;7.646;2022-11-21T16:32:35;48.80;;;25.33;;
13263;SDS011;6700;51.988;7.646;2022-11-21T16:35:02;52.53;;;25.10;;
13263;SDS011;6700;51.988;7.646;2022-11-21T16:37:30;44.73;;;23.80;;
13263;SDS011;6700;51.988;7.646;2022-11-21T16:39:57;40.67;;;23.33;;
13263;SDS011;6700;51.988;7.646;2022-11-21T16:42:25;50.37;;;23.97;;
13263;SDS011;6700;51.988;7.646;2022-11-21T16:44:52;41.77;;;25.23;;
13263;SDS011;6700;51.988;7.646;2022-11-21T16:47:19;42.37;;;23.37;;
13263;SDS011;6700;51.988;7.646;2022-11-21T16:49:46;46.07;;;23.27;;
13263;SDS011;6700;51.988;7.646;2022-11-21T16:52:14;45.93;;;23.67;;
13263;SDS011;6700;51.988;7.646;2022-11-21T16:54:43;39.37;;;22.50;;
13263;SDS011;6700;51.988;7.646;2022-11-21T16:57:10;39.00;;;22.93;;
13263;SDS011;6700;51.988;7.646;2022-11-21T16:59:37;41.07;;;23.50;;
13263;SDS011;6700;51.988;7.646;2022-11-21T17:02:04;36.77;;;22.53;;
13263;SDS011;6700;51.988;7.646;2022-11-21T17:04:31;34.50;;;22.53;;
13263;SDS011;6700;51.988;7.646;2022-11-21T17:07:00;45.40;;;22.87;;
13263;SDS011;6700;51.988;7.646;2022-11-21T17:09:27;43.03;;;23.43;;